createdAt,value
2019-01-06T00:00:55.145Z,1019.62
2019-01-06T00:01:55.134Z,1019.65
2019-01-06T00:02:55.123Z,1019.64
2019-01-06T00:03:55.111Z,1019.61
2019-01-06T00:04:55.111Z,1019.59
2019-01-06T00:05:55.091Z,1019.63
2019-01-06T00:06:55.080Z,1019.61
2019-01-06T00:07:55.066Z,1019.62
2019-01-06T00:08:55.059Z,1019.61
2019-01-06T00:09:55.056Z,1019.62
2019-01-06T00:10:55.046Z,1019.64
2019-01-06T00:11:55.025Z,1019.60
2019-01-06T00:12:55.012Z,1019.58
2019-01-06T00:13:55.001Z,1019.63
2019-01-06T00:14:55.004Z,1019.58
2019-01-06T00:15:54.980Z,1019.57
2019-01-06T00:16:54.967Z,1019.55
2019-01-06T00:17:54.956Z,1019.62
2019-01-06T00:18:54.947Z,1019.61
2019-01-06T00:19:54.946Z,1019.57
2019-01-06T00:20:54.944Z,1019.57
2019-01-06T00:21:54.912Z,1019.61
2019-01-06T00:22:54.911Z,1019.59
2019-01-06T00:23:54.887Z,1019.56
2019-01-06T00:24:54.892Z,1019.59
2019-01-06T00:25:54.870Z,1019.59
2019-01-06T00:26:54.857Z,1019.57
2019-01-06T00:27:54.843Z,1019.48
2019-01-06T00:28:54.841Z,1019.51
2019-01-06T00:29:54.834Z,1019.47
2019-01-06T00:30:54.813Z,1019.45
2019-01-06T00:31:54.804Z,1019.47
2019-01-06T00:32:54.792Z,1019.49
2019-01-06T00:33:54.818Z,1019.42
2019-01-06T00:34:54.780Z,1019.44
2019-01-06T00:35:54.756Z,1019.42
2019-01-06T00:36:54.752Z,1019.44
2019-01-06T00:37:54.738Z,1019.43
2019-01-06T00:38:54.721Z,1019.47
2019-01-06T00:39:54.726Z,1019.52
2019-01-06T00:40:54.734Z,1019.54
2019-01-06T00:41:54.686Z,1019.51
2019-01-06T00:42:54.675Z,1019.56
2019-01-06T00:43:54.669Z,1019.58
2019-01-06T00:44:54.671Z,1019.52
2019-01-06T00:45:54.643Z,1019.56
2019-01-06T00:46:54.633Z,1019.57
2019-01-06T00:47:54.619Z,1019.53
2019-01-06T00:48:54.608Z,1019.59
2019-01-06T00:49:54.617Z,1019.61
2019-01-06T00:50:54.588Z,1019.64
2019-01-06T00:51:54.579Z,1019.66
2019-01-06T00:52:54.563Z,1019.67
2019-01-06T00:53:54.553Z,1019.66
2019-01-06T00:54:54.556Z,1019.69
2019-01-06T00:55:54.531Z,1019.67
2019-01-06T00:56:54.539Z,1019.65
2019-01-06T00:57:54.507Z,1019.69
2019-01-06T00:58:54.497Z,1019.67
2019-01-06T00:59:54.502Z,1019.63
2019-01-06T01:00:54.475Z,1019.64
2019-01-06T01:01:54.464Z,1019.65
2019-01-06T01:02:54.454Z,1019.66
2019-01-06T01:03:54.441Z,1019.62
2019-01-06T01:04:54.446Z,1019.65
2019-01-06T01:05:54.422Z,1019.58
2019-01-06T01:06:54.434Z,1019.60
2019-01-06T01:07:54.397Z,1019.62
2019-01-06T01:08:54.388Z,1019.64
2019-01-06T01:09:54.386Z,1019.66
2019-01-06T01:10:54.367Z,1019.65
2019-01-06T01:11:54.352Z,1019.67
2019-01-06T01:12:54.342Z,1019.65
2019-01-06T01:13:54.330Z,1019.69
2019-01-06T01:14:54.330Z,1019.69
2019-01-06T01:15:54.308Z,1019.68
2019-01-06T01:16:54.298Z,1019.64
2019-01-06T01:17:54.287Z,1019.68
2019-01-06T01:18:54.359Z,1019.68
2019-01-06T01:19:54.297Z,1019.63
2019-01-06T01:20:54.252Z,1019.67
2019-01-06T01:21:54.244Z,1019.63
2019-01-06T01:22:54.230Z,1019.70
2019-01-06T01:23:54.219Z,1019.71
2019-01-06T01:24:54.773Z,1019.72
2019-01-06T01:25:54.211Z,1019.71
2019-01-06T01:26:54.184Z,1019.77
2019-01-06T01:27:54.173Z,1019.74
2019-01-06T01:28:54.162Z,1019.73
2019-01-06T01:29:54.150Z,1019.72
2019-01-06T01:30:54.151Z,1019.71
2019-01-06T01:31:54.160Z,1019.75
2019-01-06T01:32:54.118Z,1019.75
2019-01-06T01:33:54.107Z,1019.70
2019-01-06T01:34:54.094Z,1019.76
2019-01-06T01:35:54.094Z,1019.77
2019-01-06T01:36:54.073Z,1019.71
2019-01-06T01:37:54.060Z,1019.75
2019-01-06T01:38:54.050Z,1019.74
2019-01-06T01:39:54.040Z,1019.77
2019-01-06T01:40:54.068Z,1019.77
2019-01-06T01:41:54.015Z,1019.75
2019-01-06T01:42:54.021Z,1019.79
2019-01-06T01:43:54.006Z,1019.81
2019-01-06T01:44:53.983Z,1019.82
2019-01-06T01:45:54.004Z,1019.82
2019-01-06T01:46:53.959Z,1019.84
2019-01-06T01:47:53.958Z,1019.84
2019-01-06T01:48:53.954Z,1019.81
2019-01-06T01:49:53.927Z,1019.87
2019-01-06T01:50:53.933Z,1019.92
2019-01-06T01:51:53.917Z,1019.85
2019-01-06T01:52:53.893Z,1019.86
2019-01-06T01:53:53.909Z,1019.89
2019-01-06T01:54:53.871Z,1019.86
2019-01-06T01:55:53.878Z,1019.89
2019-01-06T01:56:53.849Z,1019.85
2019-01-06T01:57:53.836Z,1019.87
2019-01-06T01:58:53.828Z,1019.85
2019-01-06T01:59:53.815Z,1019.87
2019-01-06T02:00:53.832Z,1019.98
2019-01-06T02:01:53.793Z,1019.91
2019-01-06T02:02:53.782Z,1019.91
2019-01-06T02:03:53.771Z,1019.93
2019-01-06T02:04:53.760Z,1019.94
2019-01-06T02:05:53.763Z,1019.92
2019-01-06T02:06:53.747Z,1019.93
2019-01-06T02:07:53.726Z,1019.98
2019-01-06T02:08:53.716Z,1019.97
2019-01-06T02:09:53.711Z,1019.96
2019-01-06T02:10:53.691Z,1019.95
2019-01-06T02:11:53.698Z,1019.95
2019-01-06T02:12:53.669Z,1019.94
2019-01-06T02:13:53.662Z,1019.98
2019-01-06T02:14:53.648Z,1019.99
2019-01-06T02:15:53.635Z,1019.99
2019-01-06T02:16:53.637Z,1020.01
2019-01-06T02:17:53.615Z,1020.00
2019-01-06T02:18:53.604Z,1019.95
2019-01-06T02:19:53.594Z,1019.99
2019-01-06T02:20:53.579Z,1019.97
2019-01-06T02:21:53.582Z,1019.94
2019-01-06T02:22:53.563Z,1019.96
2019-01-06T02:23:53.547Z,1019.96
2019-01-06T02:24:53.537Z,1019.95
2019-01-06T02:25:53.527Z,1019.92
2019-01-06T02:26:53.525Z,1019.94
2019-01-06T02:27:53.504Z,1019.91
2019-01-06T02:28:53.511Z,1019.97
2019-01-06T02:29:53.480Z,1019.95
2019-01-06T02:30:53.479Z,1019.95
2019-01-06T02:31:53.477Z,1020.00
2019-01-06T02:32:53.446Z,1019.93
2019-01-06T02:33:53.435Z,1019.96
2019-01-06T02:34:53.425Z,1019.97
2019-01-06T02:35:53.415Z,1019.99
2019-01-06T02:36:53.415Z,1020.03
2019-01-06T02:37:53.390Z,1020.03
2019-01-06T02:38:53.380Z,1020.03
2019-01-06T02:39:53.368Z,1020.00
2019-01-06T02:40:53.475Z,1020.01
2019-01-06T02:41:53.365Z,1020.00
2019-01-06T02:42:53.336Z,1019.99
2019-01-06T02:43:53.333Z,1020.06
2019-01-06T02:44:53.313Z,1020.05
2019-01-06T02:45:53.301Z,1020.04
2019-01-06T02:46:53.302Z,1020.04
2019-01-06T02:47:53.282Z,1020.03
2019-01-06T02:48:53.267Z,1020.01
2019-01-06T02:49:53.258Z,1020.01
2019-01-06T02:50:53.252Z,1020.02
2019-01-06T02:51:53.264Z,1020.01
2019-01-06T02:52:53.223Z,1020.00
2019-01-06T02:53:53.212Z,1020.02
2019-01-06T02:54:53.204Z,1019.99
2019-01-06T02:55:53.194Z,1020.00
2019-01-06T02:56:53.193Z,1020.03
2019-01-06T02:57:53.169Z,1020.05
2019-01-06T02:58:53.157Z,1020.05
2019-01-06T02:59:53.147Z,1020.03
2019-01-06T03:00:53.140Z,1020.03
2019-01-06T03:01:53.145Z,1020.03
2019-01-06T03:02:53.124Z,1020.09
2019-01-06T03:03:53.100Z,1020.02
2019-01-06T03:04:53.089Z,1020.05
2019-01-06T03:05:53.081Z,1020.08
2019-01-06T03:06:53.079Z,1020.10
2019-01-06T03:07:53.055Z,1020.09
2019-01-06T03:08:53.043Z,1020.07
2019-01-06T03:09:53.034Z,1020.07
2019-01-06T03:10:53.021Z,1020.11
2019-01-06T03:11:53.021Z,1020.04
2019-01-06T03:12:53.010Z,1020.07
2019-01-06T03:13:52.988Z,1020.05
2019-01-06T03:14:52.998Z,1020.08
2019-01-06T03:15:52.967Z,1020.08
2019-01-06T03:16:52.956Z,1020.01
2019-01-06T03:17:52.957Z,1020.06
2019-01-06T03:18:52.932Z,1020.04
2019-01-06T03:19:52.922Z,1020.02
2019-01-06T03:20:52.912Z,1020.00
2019-01-06T03:21:52.898Z,1019.94
2019-01-06T03:22:52.901Z,1019.94
2019-01-06T03:23:52.875Z,1019.95
2019-01-06T03:24:52.867Z,1019.91
2019-01-06T03:25:52.854Z,1019.89
2019-01-06T03:26:52.841Z,1019.89
2019-01-06T03:27:52.860Z,1019.92
2019-01-06T03:28:52.818Z,1019.86
2019-01-06T03:29:52.814Z,1019.90
2019-01-06T03:30:52.809Z,1019.88
2019-01-06T03:31:52.788Z,1019.86
2019-01-06T03:32:52.790Z,1019.86
2019-01-06T03:33:52.767Z,1019.85
2019-01-06T03:34:52.753Z,1019.86
2019-01-06T03:35:52.742Z,1019.87
2019-01-06T03:36:52.728Z,1019.78
2019-01-06T03:37:52.738Z,1019.81
2019-01-06T03:38:52.708Z,1019.82
2019-01-06T03:39:52.695Z,1019.83
2019-01-06T03:40:52.688Z,1019.83
2019-01-06T03:41:52.674Z,1019.83
2019-01-06T03:42:52.674Z,1019.80
2019-01-06T03:43:52.652Z,1019.82
2019-01-06T03:44:52.640Z,1019.82
2019-01-06T03:45:52.630Z,1019.83
2019-01-06T03:46:52.624Z,1019.86
2019-01-06T03:47:52.649Z,1019.83
2019-01-06T03:48:52.597Z,1019.83
2019-01-06T03:49:52.588Z,1019.80
2019-01-06T03:50:52.581Z,1019.79
2019-01-06T03:51:52.560Z,1019.87
2019-01-06T03:52:52.580Z,1019.87
2019-01-06T03:53:52.551Z,1019.84
2019-01-06T03:54:52.527Z,1019.85
2019-01-06T03:55:52.521Z,1019.85
2019-01-06T03:56:52.505Z,1019.86
2019-01-06T03:57:52.494Z,1019.88
2019-01-06T03:58:52.493Z,1019.86
2019-01-06T03:59:52.477Z,1019.85
2019-01-06T04:00:52.475Z,1019.82
2019-01-06T04:01:52.450Z,1019.83
2019-01-06T04:02:52.441Z,1019.89
2019-01-06T04:03:52.440Z,1019.82
2019-01-06T04:04:52.416Z,1019.84
2019-01-06T04:05:52.408Z,1019.84
2019-01-06T04:06:52.393Z,1019.85
2019-01-06T04:07:52.388Z,1019.83
2019-01-06T04:08:52.383Z,1019.86
2019-01-06T04:09:52.361Z,1019.85
2019-01-06T04:10:52.357Z,1019.82
2019-01-06T04:11:52.341Z,1019.81
2019-01-06T04:12:52.327Z,1019.82
2019-01-06T04:13:52.344Z,1019.85
2019-01-06T04:14:52.306Z,1019.85
2019-01-06T04:15:52.296Z,1019.85
2019-01-06T04:16:52.281Z,1019.81
2019-01-06T04:17:52.271Z,1019.82
2019-01-06T04:18:52.289Z,1019.76
2019-01-06T04:19:52.298Z,1019.78
2019-01-06T04:20:52.238Z,1019.87
2019-01-06T04:21:52.225Z,1019.79
2019-01-06T04:22:52.217Z,1019.80
2019-01-06T04:23:52.235Z,1019.79
2019-01-06T04:24:52.193Z,1019.80
2019-01-06T04:25:52.180Z,1019.74
2019-01-06T04:26:52.169Z,1019.81
2019-01-06T04:27:52.185Z,1019.79
2019-01-06T04:28:52.160Z,1019.77
2019-01-06T04:29:52.135Z,1019.79
2019-01-06T04:30:52.854Z,1019.78
2019-01-06T04:31:52.112Z,1019.73
2019-01-06T04:32:52.111Z,1019.79
2019-01-06T04:33:52.138Z,1019.80
2019-01-06T04:34:52.083Z,1019.79
2019-01-06T04:35:52.072Z,1019.81
2019-01-06T04:36:52.067Z,1019.79
2019-01-06T04:37:52.046Z,1019.77
2019-01-06T04:38:52.036Z,1019.79
2019-01-06T04:39:52.036Z,1019.82
2019-01-06T04:40:52.012Z,1019.84
2019-01-06T04:41:52.005Z,1019.81
2019-01-06T04:42:51.989Z,1019.86
2019-01-06T04:43:51.979Z,1019.84
2019-01-06T04:44:51.980Z,1019.85
2019-01-06T04:45:51.957Z,1019.90
2019-01-06T04:46:51.964Z,1019.83
2019-01-06T04:47:51.939Z,1019.86
2019-01-06T04:48:51.922Z,1019.83
2019-01-06T04:49:51.925Z,1019.83
2019-01-06T04:50:51.906Z,1019.84
2019-01-06T04:51:51.890Z,1019.82
2019-01-06T04:52:51.879Z,1019.83
2019-01-06T04:53:51.868Z,1019.82
2019-01-06T04:54:51.868Z,1019.82
2019-01-06T04:55:51.844Z,1019.81
2019-01-06T04:56:51.849Z,1019.82
2019-01-06T04:57:51.823Z,1019.84
2019-01-06T04:58:51.813Z,1019.80
2019-01-06T04:59:51.823Z,1019.83
2019-01-06T05:00:51.789Z,1019.85
2019-01-06T05:01:51.781Z,1019.80
2019-01-06T05:02:51.766Z,1019.86
2019-01-06T05:03:51.757Z,1019.85
2019-01-06T05:04:51.881Z,1019.83
2019-01-06T05:05:51.733Z,1019.83
2019-01-06T05:06:51.721Z,1019.79
2019-01-06T05:07:51.711Z,1019.81
2019-01-06T05:08:51.699Z,1019.79
2019-01-06T05:09:51.720Z,1019.82
2019-01-06T05:10:51.681Z,1019.84
2019-01-06T05:11:51.664Z,1019.87
2019-01-06T05:12:51.655Z,1019.86
2019-01-06T05:13:51.643Z,1019.84
2019-01-06T05:14:51.645Z,1019.85
2019-01-06T05:15:51.621Z,1019.87
2019-01-06T05:16:51.627Z,1019.87
2019-01-06T05:17:51.599Z,1019.87
2019-01-06T05:18:51.588Z,1019.89
2019-01-06T05:19:51.590Z,1019.89
2019-01-06T05:20:51.568Z,1019.92
2019-01-06T05:21:51.554Z,1019.93
2019-01-06T05:22:51.560Z,1019.92
2019-01-06T05:23:51.530Z,1019.92
2019-01-06T05:24:51.532Z,1019.91
2019-01-06T05:25:51.509Z,1019.93
2019-01-06T05:26:51.498Z,1019.95
2019-01-06T05:27:51.487Z,1019.96
2019-01-06T05:28:51.475Z,1019.92
2019-01-06T05:29:51.476Z,1019.91
2019-01-06T05:30:51.453Z,1019.95
2019-01-06T05:31:51.449Z,1019.94
2019-01-06T05:32:51.452Z,1019.97
2019-01-06T05:33:51.420Z,1019.98
2019-01-06T05:34:51.419Z,1019.97
2019-01-06T05:35:51.397Z,1020.04
2019-01-06T05:36:51.385Z,1019.97
2019-01-06T05:37:51.375Z,1019.99
2019-01-06T05:38:51.364Z,1020.00
2019-01-06T05:39:51.362Z,1020.02
2019-01-06T05:40:51.338Z,1020.01
2019-01-06T05:41:51.328Z,1019.99
2019-01-06T05:42:51.319Z,1020.03
2019-01-06T05:43:51.306Z,1020.01
2019-01-06T05:44:51.306Z,1019.98
2019-01-06T05:45:51.303Z,1020.01
2019-01-06T05:46:51.274Z,1019.97
2019-01-06T05:47:51.263Z,1020.02
2019-01-06T05:48:51.252Z,1020.00
2019-01-06T05:49:51.429Z,1020.01
2019-01-06T05:50:51.227Z,1020.02
2019-01-06T05:51:51.217Z,1020.00
2019-01-06T05:52:51.207Z,1020.04
2019-01-06T05:53:51.197Z,1020.01
2019-01-06T05:54:51.187Z,1020.00
2019-01-06T05:55:51.210Z,1019.99
2019-01-06T05:56:51.161Z,1020.01
2019-01-06T05:57:51.151Z,1020.01
2019-01-06T05:58:51.139Z,1020.05
2019-01-06T05:59:51.127Z,1020.02
2019-01-06T06:00:51.129Z,1020.06
2019-01-06T06:01:51.104Z,1020.01
2019-01-06T06:02:51.092Z,1020.05
2019-01-06T06:03:51.081Z,1020.10
2019-01-06T06:04:51.071Z,1020.10
2019-01-06T06:05:51.076Z,1020.06
2019-01-06T06:06:51.048Z,1020.10
2019-01-06T06:07:51.038Z,1020.07
2019-01-06T06:08:51.032Z,1020.08
2019-01-06T06:09:51.015Z,1020.12
2019-01-06T06:10:51.015Z,1020.09
2019-01-06T06:11:50.992Z,1020.06
2019-01-06T06:12:50.980Z,1020.13
2019-01-06T06:13:50.973Z,1020.08
2019-01-06T06:14:50.957Z,1020.08
2019-01-06T06:15:50.959Z,1020.13
2019-01-06T06:16:50.936Z,1020.12
2019-01-06T06:17:50.925Z,1020.10
2019-01-06T06:18:50.915Z,1020.11
2019-01-06T06:19:50.902Z,1020.15
2019-01-06T06:20:50.902Z,1020.16
2019-01-06T06:21:50.890Z,1020.17
2019-01-06T06:22:50.900Z,1020.21
2019-01-06T06:23:50.857Z,1020.21
2019-01-06T06:24:50.846Z,1020.20
2019-01-06T06:25:50.847Z,1020.20
2019-01-06T06:26:50.825Z,1020.21
2019-01-06T06:27:50.813Z,1020.22
2019-01-06T06:28:50.802Z,1020.23
2019-01-06T06:29:50.791Z,1020.23
2019-01-06T06:30:50.809Z,1020.27
2019-01-06T06:31:50.783Z,1020.21
2019-01-06T06:32:50.757Z,1020.30
2019-01-06T06:33:50.745Z,1020.28
2019-01-06T06:34:50.734Z,1020.29
2019-01-06T06:35:50.723Z,1020.29
2019-01-06T06:36:50.722Z,1020.30
2019-01-06T06:37:50.701Z,1020.27
2019-01-06T06:38:50.690Z,1020.33
2019-01-06T06:39:50.678Z,1020.32
2019-01-06T06:40:50.668Z,1020.28
2019-01-06T06:41:50.688Z,1020.31
2019-01-06T06:42:50.649Z,1020.36
2019-01-06T06:43:50.633Z,1020.34
2019-01-06T06:44:50.621Z,1020.39
2019-01-06T06:45:50.613Z,1020.35
2019-01-06T06:46:50.612Z,1020.34
2019-01-06T06:47:50.597Z,1020.34
2019-01-06T06:48:50.582Z,1020.36
2019-01-06T06:49:50.566Z,1020.38
2019-01-06T06:50:50.556Z,1020.32
2019-01-06T06:51:50.566Z,1020.37
2019-01-06T06:52:50.533Z,1020.35
2019-01-06T06:53:50.522Z,1020.38
2019-01-06T06:54:50.521Z,1020.40
2019-01-06T06:55:50.497Z,1020.38
2019-01-06T06:56:50.500Z,1020.39
2019-01-06T06:57:50.481Z,1020.41
2019-01-06T06:58:50.466Z,1020.42
2019-01-06T06:59:50.453Z,1020.44
2019-01-06T07:00:50.443Z,1020.42
2019-01-06T07:01:50.443Z,1020.44
2019-01-06T07:02:50.419Z,1020.41
2019-01-06T07:03:50.410Z,1020.48
2019-01-06T07:04:50.397Z,1020.51
2019-01-06T07:05:50.388Z,1020.50
2019-01-06T07:06:50.395Z,1020.55
2019-01-06T07:07:50.377Z,1020.53
2019-01-06T07:08:50.352Z,1020.62
2019-01-06T07:09:50.342Z,1020.61
2019-01-06T07:10:50.330Z,1020.61
2019-01-06T07:11:50.332Z,1020.65
2019-01-06T07:12:50.309Z,1020.63
2019-01-06T07:13:50.297Z,1020.63
2019-01-06T07:14:50.286Z,1020.70
2019-01-06T07:15:50.283Z,1020.63
2019-01-06T07:16:50.273Z,1020.75
2019-01-06T07:17:50.266Z,1020.78
2019-01-06T07:18:50.256Z,1020.79
2019-01-06T07:19:50.235Z,1020.81
2019-01-06T07:20:50.219Z,1020.77
2019-01-06T07:21:50.219Z,1020.85
2019-01-06T07:22:50.197Z,1020.87
2019-01-06T07:23:50.187Z,1020.83
2019-01-06T07:24:50.174Z,1020.86
2019-01-06T07:25:50.163Z,1020.86
2019-01-06T07:26:50.164Z,1020.87
2019-01-06T07:27:50.140Z,1020.88
2019-01-06T07:28:50.129Z,1020.87
2019-01-06T07:29:50.116Z,1020.89
2019-01-06T07:30:50.107Z,1020.91
2019-01-06T07:31:50.107Z,1020.93
2019-01-06T07:32:50.085Z,1020.99
2019-01-06T07:33:50.144Z,1020.98
2019-01-06T07:34:50.078Z,1020.98
2019-01-06T07:35:50.055Z,1020.97
2019-01-06T07:36:50.118Z,1020.97
2019-01-06T07:37:50.040Z,1020.98
2019-01-06T07:38:50.017Z,1021.06
2019-01-06T07:39:50.042Z,1021.03
2019-01-06T07:40:50.003Z,1021.07
2019-01-06T07:41:49.983Z,1021.05
2019-01-06T07:42:49.982Z,1021.06
2019-01-06T07:43:49.961Z,1021.11
2019-01-06T07:44:49.949Z,1021.07
2019-01-06T07:45:49.938Z,1021.09
2019-01-06T07:46:49.927Z,1021.11
2019-01-06T07:47:49.927Z,1021.09
2019-01-06T07:48:49.903Z,1021.08
2019-01-06T07:49:49.894Z,1021.12
2019-01-06T07:50:49.882Z,1021.16
2019-01-06T07:51:49.874Z,1021.12
2019-01-06T07:52:49.870Z,1021.14
2019-01-06T07:53:49.853Z,1021.19
2019-01-06T07:54:49.836Z,1021.22
2019-01-06T07:55:49.825Z,1021.18
2019-01-06T07:56:49.821Z,1021.25
2019-01-06T07:57:49.816Z,1021.25
2019-01-06T07:58:49.793Z,1021.23
2019-01-06T07:59:49.789Z,1021.25
2019-01-06T08:00:49.776Z,1021.25
2019-01-06T08:01:49.757Z,1021.26
2019-01-06T08:02:49.759Z,1021.23
2019-01-06T08:03:49.759Z,1021.27
2019-01-06T08:04:49.724Z,1021.32
2019-01-06T08:05:49.713Z,1021.29
2019-01-06T08:06:49.713Z,1021.28
2019-01-06T08:07:49.702Z,1021.31
2019-01-06T08:08:49.685Z,1021.29
2019-01-06T08:09:49.670Z,1021.30
2019-01-06T08:10:49.659Z,1021.33
2019-01-06T08:11:49.644Z,1021.31
2019-01-06T08:12:49.668Z,1021.28
2019-01-06T08:13:49.623Z,1021.30
2019-01-06T08:14:49.843Z,1021.33
2019-01-06T08:15:49.602Z,1021.34
2019-01-06T08:16:49.593Z,1021.34
2019-01-06T08:17:49.628Z,1021.37
2019-01-06T08:18:49.566Z,1021.38
2019-01-06T08:19:49.555Z,1021.42
2019-01-06T08:20:49.552Z,1021.39
2019-01-06T08:21:49.540Z,1021.44
2019-01-06T08:22:49.554Z,1021.44
2019-01-06T08:23:49.511Z,1021.47
2019-01-06T08:24:49.519Z,1021.48
2019-01-06T08:25:49.491Z,1021.48
2019-01-06T08:26:49.501Z,1021.50
2019-01-06T08:27:49.467Z,1021.48
2019-01-06T08:28:49.481Z,1021.46
2019-01-06T08:29:49.443Z,1021.47
2019-01-06T08:30:49.434Z,1021.48
2019-01-06T08:31:49.423Z,1021.51
2019-01-06T08:32:49.413Z,1021.54
2019-01-06T08:33:49.415Z,1021.53
2019-01-06T08:34:49.388Z,1021.57
2019-01-06T08:35:49.376Z,1021.59
2019-01-06T08:36:49.366Z,1021.56
2019-01-06T08:37:49.357Z,1021.57
2019-01-06T08:38:49.367Z,1021.62
2019-01-06T08:39:49.344Z,1021.59
2019-01-06T08:40:49.319Z,1021.57
2019-01-06T08:41:49.311Z,1021.58
2019-01-06T08:42:49.298Z,1021.55
2019-01-06T08:43:49.296Z,1021.54
2019-01-06T08:44:49.277Z,1021.55
2019-01-06T08:45:49.266Z,1021.54
2019-01-06T08:46:49.254Z,1021.54
2019-01-06T08:47:49.243Z,1021.54
2019-01-06T08:48:49.243Z,1021.53
2019-01-06T08:49:49.244Z,1021.55
2019-01-06T08:50:49.208Z,1021.64
2019-01-06T08:51:49.197Z,1021.57
2019-01-06T08:52:49.187Z,1021.61
2019-01-06T08:53:49.185Z,1021.58
2019-01-06T08:54:49.169Z,1021.56
2019-01-06T08:55:49.153Z,1021.58
2019-01-06T08:56:49.146Z,1021.59
2019-01-06T08:57:49.130Z,1021.61
2019-01-06T08:58:49.130Z,1021.71
2019-01-06T08:59:49.108Z,1021.62
2019-01-06T09:00:49.098Z,1021.65
2019-01-06T09:01:49.087Z,1021.67
2019-01-06T09:02:49.082Z,1021.68
2019-01-06T09:03:49.076Z,1021.67
2019-01-06T09:04:49.051Z,1021.65
2019-01-06T09:05:49.040Z,1021.64
2019-01-06T09:06:49.031Z,1021.62
2019-01-06T09:07:49.018Z,1021.69
2019-01-06T09:08:49.019Z,1021.64
2019-01-06T09:09:48.996Z,1021.63
2019-01-06T09:10:48.984Z,1021.63
2019-01-06T09:11:48.974Z,1021.71
2019-01-06T09:12:48.988Z,1021.68
2019-01-06T09:13:48.961Z,1021.72
2019-01-06T09:14:48.960Z,1021.70
2019-01-06T09:15:48.928Z,1021.69
2019-01-06T09:16:48.917Z,1021.73
2019-01-06T09:17:48.907Z,1021.69
2019-01-06T09:18:48.935Z,1021.70
2019-01-06T09:19:50.474Z,1021.70
2019-01-06T09:20:48.871Z,1021.73
2019-01-06T09:21:48.861Z,1021.71
2019-01-06T09:22:48.849Z,1021.74
2019-01-06T09:23:48.843Z,1021.73
2019-01-06T09:24:48.840Z,1021.75
2019-01-06T09:25:48.825Z,1021.76
2019-01-06T09:26:48.806Z,1021.74
2019-01-06T09:27:48.794Z,1021.77
2019-01-06T09:28:48.784Z,1021.80
2019-01-06T09:29:48.783Z,1021.75
2019-01-06T09:30:48.759Z,1021.79
2019-01-06T09:31:48.754Z,1021.75
2019-01-06T09:32:48.745Z,1021.73
2019-01-06T09:33:48.744Z,1021.79
2019-01-06T09:34:48.726Z,1021.76
2019-01-06T09:35:48.719Z,1021.77
2019-01-06T09:36:48.694Z,1021.80
2019-01-06T09:37:48.680Z,1021.76
2019-01-06T09:38:48.669Z,1021.77
2019-01-06T09:39:48.669Z,1021.75
2019-01-06T09:40:48.647Z,1021.81
2019-01-06T09:41:48.639Z,1021.73
2019-01-06T09:42:48.625Z,1021.76
2019-01-06T09:43:48.612Z,1021.72
2019-01-06T09:44:48.617Z,1021.75
2019-01-06T09:45:48.591Z,1021.74
2019-01-06T09:46:48.584Z,1021.80
2019-01-06T09:47:48.579Z,1021.79
2019-01-06T09:48:48.566Z,1021.79
2019-01-06T09:49:48.558Z,1021.79
2019-01-06T09:50:48.536Z,1021.81
2019-01-06T09:51:48.527Z,1021.81
2019-01-06T09:52:48.512Z,1021.80
2019-01-06T09:53:48.519Z,1021.83
2019-01-06T09:54:48.502Z,1021.82
2019-01-06T09:55:48.479Z,1021.79
2019-01-06T09:56:48.470Z,1021.82
2019-01-06T09:57:48.457Z,1021.84
2019-01-06T09:58:48.464Z,1021.82
2019-01-06T09:59:48.446Z,1021.85
2019-01-06T10:00:48.428Z,1021.80
2019-01-06T10:01:48.411Z,1021.81
2019-01-06T10:02:48.927Z,1021.82
2019-01-06T10:03:48.391Z,1021.83
2019-01-06T10:04:48.417Z,1021.84
2019-01-06T10:05:48.368Z,1021.78
2019-01-06T10:06:48.356Z,1021.83
2019-01-06T10:07:48.346Z,1021.84
2019-01-06T10:08:48.335Z,1021.81
2019-01-06T10:09:48.346Z,1021.84
2019-01-06T10:10:48.311Z,1021.83
2019-01-06T10:11:48.316Z,1021.83
2019-01-06T10:12:48.292Z,1021.85
2019-01-06T10:13:48.277Z,1021.83
2019-01-06T10:14:48.268Z,1021.84
2019-01-06T10:15:48.267Z,1021.85
2019-01-06T10:16:48.243Z,1021.84
2019-01-06T10:17:48.233Z,1021.79
2019-01-06T10:18:48.222Z,1021.84
2019-01-06T10:19:48.211Z,1021.81
2019-01-06T10:20:48.220Z,1021.79
2019-01-06T10:21:48.205Z,1021.82
2019-01-06T10:22:48.177Z,1021.78
2019-01-06T10:23:48.173Z,1021.79
2019-01-06T10:24:52.002Z,1021.83
2019-01-06T10:25:48.155Z,1021.83
2019-01-06T10:26:48.132Z,1021.87
2019-01-06T10:27:48.121Z,1021.87
2019-01-06T10:28:48.110Z,1021.86
2019-01-06T10:29:48.102Z,1021.89
2019-01-06T10:30:48.116Z,1021.94
2019-01-06T10:31:48.076Z,1021.92
2019-01-06T10:32:48.071Z,1021.91
2019-01-06T10:33:48.056Z,1021.92
2019-01-06T10:34:48.061Z,1021.91
2019-01-06T10:35:48.043Z,1021.96
2019-01-06T10:36:48.023Z,1021.91
2019-01-06T10:37:48.014Z,1021.99
2019-01-06T10:38:47.998Z,1021.98
2019-01-06T10:39:47.986Z,1021.99
2019-01-06T10:40:47.988Z,1021.98
2019-01-06T10:41:47.974Z,1022.02
2019-01-06T10:42:47.953Z,1022.02
2019-01-06T10:43:47.940Z,1022.03
2019-01-06T10:44:47.937Z,1022.03
2019-01-06T10:45:47.931Z,1022.01
2019-01-06T10:46:47.906Z,1022.01
2019-01-06T10:47:47.900Z,1022.00
2019-01-06T10:48:47.886Z,1022.00
2019-01-06T10:49:47.874Z,1022.04
2019-01-06T10:50:47.874Z,1021.95
2019-01-06T10:51:47.854Z,1021.97
2019-01-06T10:52:47.841Z,1021.97
2019-01-06T10:53:47.830Z,1022.01
2019-01-06T10:54:47.818Z,1021.97
2019-01-06T10:55:47.835Z,1021.96
2019-01-06T10:56:47.796Z,1022.00
2019-01-06T10:57:47.798Z,1021.97
2019-01-06T10:58:47.778Z,1022.01
2019-01-06T10:59:47.765Z,1022.00
2019-01-06T11:00:47.802Z,1022.02
2019-01-06T11:01:47.741Z,1022.05
2019-01-06T11:02:47.730Z,1022.01
2019-01-06T11:03:47.719Z,1022.06
2019-01-06T11:04:47.708Z,1022.05
2019-01-06T11:05:47.697Z,1022.05
2019-01-06T11:06:47.695Z,1022.02
2019-01-06T11:07:47.698Z,1022.02
2019-01-06T11:08:47.662Z,1022.01
2019-01-06T11:09:47.652Z,1022.00
2019-01-06T11:10:47.648Z,1022.05
2019-01-06T11:11:47.642Z,1022.04
2019-01-06T11:12:47.619Z,1022.00
2019-01-06T11:13:47.607Z,1022.03
2019-01-06T11:14:47.597Z,1021.99
2019-01-06T11:15:47.621Z,1022.01
2019-01-06T11:16:47.588Z,1022.06
2019-01-06T11:17:47.573Z,1022.08
2019-01-06T11:18:47.555Z,1022.05
2019-01-06T11:19:47.543Z,1022.07
2019-01-06T11:20:47.539Z,1022.06
2019-01-06T11:21:47.546Z,1022.06
2019-01-06T11:22:47.671Z,1022.03
2019-01-06T11:23:47.502Z,1022.04
2019-01-06T11:24:47.487Z,1022.04
2019-01-06T11:25:47.508Z,1022.02
2019-01-06T11:26:47.476Z,1022.04
2019-01-06T11:27:47.464Z,1022.07
2019-01-06T11:28:47.443Z,1022.05
2019-01-06T11:29:47.435Z,1022.07
2019-01-06T11:30:47.440Z,1022.08
2019-01-06T11:31:47.423Z,1022.08
2019-01-06T11:32:47.403Z,1022.09
2019-01-06T11:33:47.387Z,1022.09
2019-01-06T11:34:47.375Z,1022.04
2019-01-06T11:35:47.369Z,1022.05
2019-01-06T11:36:47.366Z,1022.07
2019-01-06T11:37:47.344Z,1022.04
2019-01-06T11:38:47.332Z,1022.06
2019-01-06T11:39:47.321Z,1022.03
2019-01-06T11:40:47.310Z,1022.06
2019-01-06T11:41:47.311Z,1022.07
2019-01-06T11:42:47.290Z,1022.07
2019-01-06T11:43:47.280Z,1022.05
2019-01-06T11:44:47.269Z,1022.05
2019-01-06T11:45:47.268Z,1022.00
2019-01-06T11:46:47.258Z,1022.02
2019-01-06T11:47:47.231Z,1022.08
2019-01-06T11:48:47.222Z,1022.08
2019-01-06T11:49:47.210Z,1022.05
2019-01-06T11:50:47.200Z,1022.07
2019-01-06T11:51:47.200Z,1022.07
2019-01-06T11:52:47.332Z,1022.06
2019-01-06T11:53:47.227Z,1022.05
2019-01-06T11:54:47.188Z,1022.06
2019-01-06T11:55:47.150Z,1022.02
2019-01-06T11:56:47.166Z,1022.04
2019-01-06T11:57:47.124Z,1022.05
2019-01-06T11:58:47.112Z,1022.03
2019-01-06T11:59:47.100Z,1022.02
2019-01-06T12:00:47.088Z,1022.08
2019-01-06T12:01:47.131Z,1022.04
2019-01-06T12:02:47.067Z,1022.02
2019-01-06T12:03:47.055Z,1022.03
2019-01-06T12:04:47.159Z,1022.04
2019-01-06T12:05:47.032Z,1022.05